sensor_id;sensor_type;location;lat;lon;timestamp;P1;durP1;ratioP1;P2;durP2;ratioP2
2386;SDS011;49473;50.772;8.768;2023-03-12T00:01:52;4.20;;;3.17;;
2386;SDS011;49473;50.772;8.768;2023-03-12T00:04:19;3.70;;;3.40;;
2386;SDS011;49473;50.772;8.768;2023-03-12T00:06:46;3.73;;;3.30;;
2386;SDS011;49473;50.772;8.768;2023-03-12T00:09:12;3.70;;;3.30;;
2386;SDS011;49473;50.772;8.768;2023-03-12T00:11:39;4.13;;;3.73;;
2386;SDS011;49473;50.772;8.768;2023-03-12T00:14:06;4.03;;;3.57;;
2386;SDS011;49473;50.772;8.768;2023-03-12T00:16:34;5.50;;;4.97;;
2386;SDS011;49473;50.772;8.768;2023-03-12T00:19:01;4.93;;;4.13;;
2386;SDS011;49473;50.772;8.768;2023-03-12T00:21:27;5.23;;;3.80;;
2386;SDS011;49473;50.772;8.768;2023-03-12T00:23:54;4.30;;;3.23;;
2386;SDS011;49473;50.772;8.768;2023-03-12T00:26:21;3.73;;;3.30;;
2386;SDS011;49473;50.772;8.768;2023-03-12T00:28:48;3.93;;;3.50;;
2386;SDS011;49473;50.772;8.768;2023-03-12T00:31:16;3.60;;;3.23;;
2386;SDS011;49473;50.772;8.768;2023-03-12T00:33:46;9.40;;;5.20;;
2386;SDS011;49473;50.772;8.768;2023-03-12T00:36:14;4.90;;;4.40;;
2386;SDS011;49473;50.772;8.768;2023-03-12T00:38:41;8.60;;;3.97;;
2386;SDS011;49473;50.772;8.768;2023-03-12T00:41:08;6.13;;;3.67;;
2386;SDS011;49473;50.772;8.768;2023-03-12T00:43:35;5.57;;;3.87;;
2386;SDS011;49473;50.772;8.768;2023-03-12T00:46:02;4.60;;;4.07;;
2386;SDS011;49473;50.772;8.768;2023-03-12T00:48:29;4.33;;;3.70;;
2386;SDS011;49473;50.772;8.768;2023-03-12T00:50:57;6.53;;;4.33;;
2386;SDS011;49473;50.772;8.768;2023-03-12T00:53:24;4.63;;;4.17;;
2386;SDS011;49473;50.772;8.768;2023-03-12T00:55:50;4.33;;;3.93;;
2386;SDS011;49473;50.772;8.768;2023-03-12T00:58:17;4.30;;;3.90;;
2386;SDS011;49473;50.772;8.768;2023-03-12T01:00:44;5.90;;;4.50;;
2386;SDS011;49473;50.772;8.768;2023-03-12T01:03:10;4.20;;;3.80;;
2386;SDS011;49473;50.772;8.768;2023-03-12T01:05:37;6.13;;;5.00;;
2386;SDS011;49473;50.772;8.768;2023-03-12T01:08:06;5.67;;;4.53;;
2386;SDS011;49473;50.772;8.768;2023-03-12T01:10:34;5.80;;;4.87;;
2386;SDS011;49473;50.772;8.768;2023-03-12T01:13:01;7.70;;;4.67;;
2386;SDS011;49473;50.772;8.768;2023-03-12T01:15:28;6.97;;;4.13;;
2386;SDS011;49473;50.772;8.768;2023-03-12T01:17:54;5.40;;;4.80;;
2386;SDS011;49473;50.772;8.768;2023-03-12T01:20:22;5.70;;;4.20;;
2386;SDS011;49473;50.772;8.768;2023-03-12T01:22:48;5.20;;;3.80;;
2386;SDS011;49473;50.772;8.768;2023-03-12T01:25:17;4.37;;;3.97;;
2386;SDS011;49473;50.772;8.768;2023-03-12T01:27:45;4.03;;;3.63;;
2386;SDS011;49473;50.772;8.768;2023-03-12T01:30:12;4.10;;;3.63;;
2386;SDS011;49473;50.772;8.768;2023-03-12T01:32:39;4.70;;;4.30;;
2386;SDS011;49473;50.772;8.768;2023-03-12T01:35:06;5.10;;;3.77;;
2386;SDS011;49473;50.772;8.768;2023-03-12T01:37:33;4.40;;;3.97;;
2386;SDS011;49473;50.772;8.768;2023-03-12T01:40:00;4.77;;;4.33;;
2386;SDS011;49473;50.772;8.768;2023-03-12T01:42:28;4.87;;;4.27;;
2386;SDS011;49473;50.772;8.768;2023-03-12T01:44:56;4.20;;;3.80;;
2386;SDS011;49473;50.772;8.768;2023-03-12T01:47:24;6.30;;;5.60;;
2386;SDS011;49473;50.772;8.768;2023-03-12T01:49:51;5.70;;;5.10;;
2386;SDS011;49473;50.772;8.768;2023-03-12T01:52:21;8.17;;;5.60;;
2386;SDS011;49473;50.772;8.768;2023-03-12T01:54:52;6.40;;;5.80;;
2386;SDS011;49473;50.772;8.768;2023-03-12T01:57:24;6.77;;;6.07;;
2386;SDS011;49473;50.772;8.768;2023-03-12T01:59:57;6.87;;;5.40;;
2386;SDS011;49473;50.772;8.768;2023-03-12T02:02:28;9.43;;;5.00;;
2386;SDS011;49473;50.772;8.768;2023-03-12T02:04:57;5.30;;;4.73;;
2386;SDS011;49473;50.772;8.768;2023-03-12T02:07:30;5.27;;;4.10;;
2386;SDS011;49473;50.772;8.768;2023-03-12T02:09:58;4.53;;;4.10;;
2386;SDS011;49473;50.772;8.768;2023-03-12T02:12:25;3.90;;;3.60;;
2386;SDS011;49473;50.772;8.768;2023-03-12T02:14:53;4.97;;;4.43;;
2386;SDS011;49473;50.772;8.768;2023-03-12T02:17:20;11.30;;;5.13;;
2386;SDS011;49473;50.772;8.768;2023-03-12T02:19:49;5.20;;;4.70;;
2386;SDS011;49473;50.772;8.768;2023-03-12T02:22:25;6.00;;;4.73;;
2386;SDS011;49473;50.772;8.768;2023-03-12T02:24:53;5.60;;;4.87;;
2386;SDS011;49473;50.772;8.768;2023-03-12T02:27:29;5.00;;;4.40;;
2386;SDS011;49473;50.772;8.768;2023-03-12T02:29:57;4.93;;;4.50;;
2386;SDS011;49473;50.772;8.768;2023-03-12T02:32:26;4.90;;;4.10;;
2386;SDS011;49473;50.772;8.768;2023-03-12T02:34:58;7.77;;;5.83;;
2386;SDS011;49473;50.772;8.768;2023-03-12T02:37:25;6.30;;;5.07;;
2386;SDS011;49473;50.772;8.768;2023-03-12T02:39:54;7.17;;;4.93;;
2386;SDS011;49473;50.772;8.768;2023-03-12T02:42:31;4.80;;;4.30;;
2386;SDS011;49473;50.772;8.768;2023-03-12T02:44:58;6.70;;;4.53;;
2386;SDS011;49473;50.772;8.768;2023-03-12T02:47:26;6.60;;;5.00;;
2386;SDS011;49473;50.772;8.768;2023-03-12T02:49:53;5.13;;;4.60;;
2386;SDS011;49473;50.772;8.768;2023-03-12T02:52:19;5.40;;;4.60;;
2386;SDS011;49473;50.772;8.768;2023-03-12T02:54:46;6.20;;;5.10;;
2386;SDS011;49473;50.772;8.768;2023-03-12T02:57:13;4.53;;;4.13;;
2386;SDS011;49473;50.772;8.768;2023-03-12T02:59:41;4.60;;;4.20;;
2386;SDS011;49473;50.772;8.768;2023-03-12T03:02:08;8.13;;;4.57;;
2386;SDS011;49473;50.772;8.768;2023-03-12T03:04:36;5.10;;;4.60;;
2386;SDS011;49473;50.772;8.768;2023-03-12T03:07:03;6.93;;;5.40;;
2386;SDS011;49473;50.772;8.768;2023-03-12T03:09:30;4.63;;;4.20;;
2386;SDS011;49473;50.772;8.768;2023-03-12T03:11:57;5.73;;;5.13;;
2386;SDS011;49473;50.772;8.768;2023-03-12T03:14:24;5.37;;;4.50;;
2386;SDS011;49473;50.772;8.768;2023-03-12T03:16:52;5.93;;;5.03;;
2386;SDS011;49473;50.772;8.768;2023-03-12T03:19:18;5.13;;;4.20;;
2386;SDS011;49473;50.772;8.768;2023-03-12T03:21:45;5.20;;;4.70;;
2386;SDS011;49473;50.772;8.768;2023-03-12T03:24:12;5.50;;;4.73;;
2386;SDS011;49473;50.772;8.768;2023-03-12T03:26:39;5.47;;;4.90;;
2386;SDS011;49473;50.772;8.768;2023-03-12T03:29:05;4.70;;;4.30;;
2386;SDS011;49473;50.772;8.768;2023-03-12T03:31:32;9.50;;;5.80;;
2386;SDS011;49473;50.772;8.768;2023-03-12T03:34:00;6.60;;;5.27;;
2386;SDS011;49473;50.772;8.768;2023-03-12T03:36:27;5.57;;;4.50;;
2386;SDS011;49473;50.772;8.768;2023-03-12T03:38:54;6.17;;;5.30;;
2386;SDS011;49473;50.772;8.768;2023-03-12T03:41:20;7.17;;;4.83;;
2386;SDS011;49473;50.772;8.768;2023-03-12T03:43:48;7.47;;;5.43;;
2386;SDS011;49473;50.772;8.768;2023-03-12T03:46:15;7.00;;;6.00;;
2386;SDS011;49473;50.772;8.768;2023-03-12T03:48:42;9.50;;;5.50;;
2386;SDS011;49473;50.772;8.768;2023-03-12T03:51:10;6.47;;;5.87;;
2386;SDS011;49473;50.772;8.768;2023-03-12T03:53:37;10.63;;;5.60;;
2386;SDS011;49473;50.772;8.768;2023-03-12T03:56:04;5.90;;;5.30;;
2386;SDS011;49473;50.772;8.768;2023-03-12T03:58:32;5.27;;;4.77;;
2386;SDS011;49473;50.772;8.768;2023-03-12T04:00:59;7.43;;;4.77;;
2386;SDS011;49473;50.772;8.768;2023-03-12T04:03:25;6.83;;;5.00;;
2386;SDS011;49473;50.772;8.768;2023-03-12T04:05:53;5.43;;;4.90;;
2386;SDS011;49473;50.772;8.768;2023-03-12T04:08:21;6.43;;;5.40;;
2386;SDS011;49473;50.772;8.768;2023-03-12T04:10:48;6.67;;;6.00;;
2386;SDS011;49473;50.772;8.768;2023-03-12T04:13:15;6.00;;;5.50;;
2386;SDS011;49473;50.772;8.768;2023-03-12T04:15:45;9.70;;;6.60;;
2386;SDS011;49473;50.772;8.768;2023-03-12T04:18:12;7.10;;;5.50;;
2386;SDS011;49473;50.772;8.768;2023-03-12T04:20:39;7.13;;;6.43;;
2386;SDS011;49473;50.772;8.768;2023-03-12T04:23:05;7.03;;;6.33;;
2386;SDS011;49473;50.772;8.768;2023-03-12T04:25:33;8.60;;;7.60;;
2386;SDS011;49473;50.772;8.768;2023-03-12T04:28:01;10.73;;;6.83;;
2386;SDS011;49473;50.772;8.768;2023-03-12T04:30:27;8.20;;;7.50;;
2386;SDS011;49473;50.772;8.768;2023-03-12T04:32:54;15.27;;;7.30;;
2386;SDS011;49473;50.772;8.768;2023-03-12T04:35:21;11.53;;;8.20;;
2386;SDS011;49473;50.772;8.768;2023-03-12T04:37:49;9.87;;;7.27;;
2386;SDS011;49473;50.772;8.768;2023-03-12T04:40:16;8.70;;;6.80;;
2386;SDS011;49473;50.772;8.768;2023-03-12T04:42:45;8.23;;;7.43;;
2386;SDS011;49473;50.772;8.768;2023-03-12T04:45:12;8.47;;;6.90;;
2386;SDS011;49473;50.772;8.768;2023-03-12T04:47:38;7.93;;;7.20;;
2386;SDS011;49473;50.772;8.768;2023-03-12T04:50:06;10.20;;;7.17;;
2386;SDS011;49473;50.772;8.768;2023-03-12T04:52:33;9.43;;;6.27;;
2386;SDS011;49473;50.772;8.768;2023-03-12T04:55:00;7.23;;;6.63;;
2386;SDS011;49473;50.772;8.768;2023-03-12T04:57:27;7.30;;;6.60;;
2386;SDS011;49473;50.772;8.768;2023-03-12T04:59:55;10.70;;;7.20;;
2386;SDS011;49473;50.772;8.768;2023-03-12T05:02:22;6.37;;;5.87;;
2386;SDS011;49473;50.772;8.768;2023-03-12T05:04:49;6.27;;;5.67;;
2386;SDS011;49473;50.772;8.768;2023-03-12T05:07:16;10.33;;;6.40;;
2386;SDS011;49473;50.772;8.768;2023-03-12T05:09:43;7.40;;;5.70;;
2386;SDS011;49473;50.772;8.768;2023-03-12T05:12:10;8.77;;;5.63;;
2386;SDS011;49473;50.772;8.768;2023-03-12T05:14:37;7.77;;;6.10;;
2386;SDS011;49473;50.772;8.768;2023-03-12T05:17:05;6.90;;;6.27;;
2386;SDS011;49473;50.772;8.768;2023-03-12T05:19:32;10.33;;;6.57;;
2386;SDS011;49473;50.772;8.768;2023-03-12T05:21:59;8.73;;;6.67;;
2386;SDS011;49473;50.772;8.768;2023-03-12T05:24:26;7.90;;;6.87;;
2386;SDS011;49473;50.772;8.768;2023-03-12T05:26:53;9.73;;;6.83;;
2386;SDS011;49473;50.772;8.768;2023-03-12T05:29:20;9.03;;;6.90;;
2386;SDS011;49473;50.772;8.768;2023-03-12T05:31:47;7.83;;;7.03;;
2386;SDS011;49473;50.772;8.768;2023-03-12T05:34:15;7.93;;;7.20;;
2386;SDS011;49473;50.772;8.768;2023-03-12T05:36:42;7.83;;;7.20;;
2386;SDS011;49473;50.772;8.768;2023-03-12T05:39:09;7.50;;;6.80;;
2386;SDS011;49473;50.772;8.768;2023-03-12T05:41:35;7.23;;;6.37;;
2386;SDS011;49473;50.772;8.768;2023-03-12T05:44:02;8.40;;;7.17;;
2386;SDS011;49473;50.772;8.768;2023-03-12T05:46:29;7.33;;;6.63;;
2386;SDS011;49473;50.772;8.768;2023-03-12T05:48:56;10.10;;;7.43;;
2386;SDS011;49473;50.772;8.768;2023-03-12T05:51:24;7.50;;;6.80;;
2386;SDS011;49473;50.772;8.768;2023-03-12T05:53:51;7.67;;;6.97;;
2386;SDS011;49473;50.772;8.768;2023-03-12T05:56:18;7.80;;;6.97;;
2386;SDS011;49473;50.772;8.768;2023-03-12T05:58:46;7.73;;;6.93;;
2386;SDS011;49473;50.772;8.768;2023-03-12T06:01:14;7.50;;;6.43;;
2386;SDS011;49473;50.772;8.768;2023-03-12T06:03:42;8.33;;;7.23;;
2386;SDS011;49473;50.772;8.768;2023-03-12T06:06:09;9.57;;;8.57;;
2386;SDS011;49473;50.772;8.768;2023-03-12T06:08:37;13.00;;;9.73;;
2386;SDS011;49473;50.772;8.768;2023-03-12T06:11:04;9.73;;;8.60;;
2386;SDS011;49473;50.772;8.768;2023-03-12T06:13:31;9.10;;;8.20;;
2386;SDS011;49473;50.772;8.768;2023-03-12T06:16:02;8.30;;;7.50;;
2386;SDS011;49473;50.772;8.768;2023-03-12T06:18:29;8.87;;;7.87;;
2386;SDS011;49473;50.772;8.768;2023-03-12T06:21:06;9.00;;;7.10;;
2386;SDS011;49473;50.772;8.768;2023-03-12T06:23:33;11.37;;;7.77;;
2386;SDS011;49473;50.772;8.768;2023-03-12T06:26:01;8.77;;;7.43;;
2386;SDS011;49473;50.772;8.768;2023-03-12T06:28:28;10.53;;;7.83;;
2386;SDS011;49473;50.772;8.768;2023-03-12T06:30:55;11.10;;;7.20;;
2386;SDS011;49473;50.772;8.768;2023-03-12T06:33:22;8.20;;;7.40;;
2386;SDS011;49473;50.772;8.768;2023-03-12T06:35:51;8.70;;;7.43;;
2386;SDS011;49473;50.772;8.768;2023-03-12T06:38:19;6.50;;;5.90;;
2386;SDS011;49473;50.772;8.768;2023-03-12T06:40:52;7.87;;;7.07;;
2386;SDS011;49473;50.772;8.768;2023-03-12T06:43:21;8.10;;;7.40;;
2386;SDS011;49473;50.772;8.768;2023-03-12T06:45:48;7.60;;;6.80;;
2386;SDS011;49473;50.772;8.768;2023-03-12T06:48:14;12.17;;;7.40;;
2386;SDS011;49473;50.772;8.768;2023-03-12T06:50:41;10.03;;;7.63;;
2386;SDS011;49473;50.772;8.768;2023-03-12T06:53:08;7.93;;;7.13;;
2386;SDS011;49473;50.772;8.768;2023-03-12T06:55:35;8.23;;;7.43;;
2386;SDS011;49473;50.772;8.768;2023-03-12T06:58:02;11.00;;;9.47;;
2386;SDS011;49473;50.772;8.768;2023-03-12T07:00:31;13.67;;;8.73;;
2386;SDS011;49473;50.772;8.768;2023-03-12T07:02:58;9.40;;;8.40;;
2386;SDS011;49473;50.772;8.768;2023-03-12T07:05:26;12.10;;;9.90;;
2386;SDS011;49473;50.772;8.768;2023-03-12T07:07:53;12.97;;;9.40;;
2386;SDS011;49473;50.772;8.768;2023-03-12T07:10:20;9.13;;;8.43;;
2386;SDS011;49473;50.772;8.768;2023-03-12T07:12:47;7.60;;;6.90;;
2386;SDS011;49473;50.772;8.768;2023-03-12T07:15:14;9.50;;;7.30;;
2386;SDS011;49473;50.772;8.768;2023-03-12T07:17:42;8.53;;;6.70;;
2386;SDS011;49473;50.772;8.768;2023-03-12T07:20:09;11.30;;;6.83;;
2386;SDS011;49473;50.772;8.768;2023-03-12T07:22:36;9.20;;;8.30;;
2386;SDS011;49473;50.772;8.768;2023-03-12T07:25:03;8.33;;;7.17;;
2386;SDS011;49473;50.772;8.768;2023-03-12T07:27:30;7.23;;;6.63;;
2386;SDS011;49473;50.772;8.768;2023-03-12T07:29:57;7.67;;;6.97;;
2386;SDS011;49473;50.772;8.768;2023-03-12T07:32:24;7.93;;;7.13;;
2386;SDS011;49473;50.772;8.768;2023-03-12T07:34:52;9.27;;;8.33;;
2386;SDS011;49473;50.772;8.768;2023-03-12T07:37:19;8.30;;;7.40;;
2386;SDS011;49473;50.772;8.768;2023-03-12T07:39:46;8.70;;;7.90;;
2386;SDS011;49473;50.772;8.768;2023-03-12T07:42:17;12.30;;;7.90;;
2386;SDS011;49473;50.772;8.768;2023-03-12T07:44:43;9.27;;;7.00;;
2386;SDS011;49473;50.772;8.768;2023-03-12T07:47:10;9.50;;;7.93;;
2386;SDS011;49473;50.772;8.768;2023-03-12T07:49:37;10.03;;;7.47;;
2386;SDS011;49473;50.772;8.768;2023-03-12T07:52:07;8.20;;;6.73;;
2386;SDS011;49473;50.772;8.768;2023-03-12T07:54:35;8.20;;;6.40;;
2386;SDS011;49473;50.772;8.768;2023-03-12T07:57:03;8.73;;;7.03;;
2386;SDS011;49473;50.772;8.768;2023-03-12T07:59:29;12.30;;;7.10;;
2386;SDS011;49473;50.772;8.768;2023-03-12T08:01:56;7.30;;;6.60;;
2386;SDS011;49473;50.772;8.768;2023-03-12T08:04:23;7.40;;;6.47;;
2386;SDS011;49473;50.772;8.768;2023-03-12T08:06:50;8.40;;;7.10;;
2386;SDS011;49473;50.772;8.768;2023-03-12T08:09:18;7.50;;;6.80;;
2386;SDS011;49473;50.772;8.768;2023-03-12T08:11:44;7.10;;;6.43;;
2386;SDS011;49473;50.772;8.768;2023-03-12T08:14:11;7.70;;;5.97;;
2386;SDS011;49473;50.772;8.768;2023-03-12T08:16:38;7.50;;;6.50;;
2386;SDS011;49473;50.772;8.768;2023-03-12T08:19:05;6.40;;;5.50;;
2386;SDS011;49473;50.772;8.768;2023-03-12T08:21:31;8.10;;;5.40;;
2386;SDS011;49473;50.772;8.768;2023-03-12T08:23:58;5.43;;;4.40;;
2386;SDS011;49473;50.772;8.768;2023-03-12T08:26:26;5.37;;;4.87;;
2386;SDS011;49473;50.772;8.768;2023-03-12T08:28:53;6.17;;;4.90;;
2386;SDS011;49473;50.772;8.768;2023-03-12T08:31:19;6.27;;;5.50;;
2386;SDS011;49473;50.772;8.768;2023-03-12T08:33:46;4.60;;;4.20;;
2386;SDS011;49473;50.772;8.768;2023-03-12T08:36:13;5.23;;;4.70;;
2386;SDS011;49473;50.772;8.768;2023-03-12T08:38:40;4.80;;;4.10;;
2386;SDS011;49473;50.772;8.768;2023-03-12T08:41:06;5.43;;;4.60;;
2386;SDS011;49473;50.772;8.768;2023-03-12T08:43:35;8.70;;;5.47;;
2386;SDS011;49473;50.772;8.768;2023-03-12T08:46:03;5.17;;;4.67;;
2386;SDS011;49473;50.772;8.768;2023-03-12T08:48:30;6.90;;;4.77;;
2386;SDS011;49473;50.772;8.768;2023-03-12T08:50:58;7.03;;;5.83;;
2386;SDS011;49473;50.772;8.768;2023-03-12T08:53:28;5.10;;;4.60;;
2386;SDS011;49473;50.772;8.768;2023-03-12T08:55:56;10.30;;;4.73;;
2386;SDS011;49473;50.772;8.768;2023-03-12T08:58:23;5.83;;;4.50;;
2386;SDS011;49473;50.772;8.768;2023-03-12T09:00:52;6.37;;;5.60;;
2386;SDS011;49473;50.772;8.768;2023-03-12T09:03:20;5.50;;;5.00;;
2386;SDS011;49473;50.772;8.768;2023-03-12T09:05:48;5.23;;;4.70;;
2386;SDS011;49473;50.772;8.768;2023-03-12T09:08:16;5.73;;;5.23;;
2386;SDS011;49473;50.772;8.768;2023-03-12T09:10:46;7.63;;;5.80;;
2386;SDS011;49473;50.772;8.768;2023-03-12T09:13:14;7.00;;;6.40;;
2386;SDS011;49473;50.772;8.768;2023-03-12T09:15:41;6.70;;;5.53;;
2386;SDS011;49473;50.772;8.768;2023-03-12T09:18:09;5.77;;;5.23;;
2386;SDS011;49473;50.772;8.768;2023-03-12T09:20:36;5.80;;;5.30;;
2386;SDS011;49473;50.772;8.768;2023-03-12T09:23:03;6.20;;;5.10;;
2386;SDS011;49473;50.772;8.768;2023-03-12T09:25:30;7.77;;;5.80;;
2386;SDS011;49473;50.772;8.768;2023-03-12T09:27:57;13.20;;;5.80;;
2386;SDS011;49473;50.772;8.768;2023-03-12T09:30:26;6.53;;;6.03;;
2386;SDS011;49473;50.772;8.768;2023-03-12T09:32:54;5.60;;;5.10;;
2386;SDS011;49473;50.772;8.768;2023-03-12T09:35:22;6.40;;;5.73;;
2386;SDS011;49473;50.772;8.768;2023-03-12T09:37:49;5.80;;;5.30;;
2386;SDS011;49473;50.772;8.768;2023-03-12T09:40:17;5.17;;;4.77;;
2386;SDS011;49473;50.772;8.768;2023-03-12T09:42:48;8.03;;;5.30;;
2386;SDS011;49473;50.772;8.768;2023-03-12T09:45:18;7.87;;;6.20;;
2386;SDS011;49473;50.772;8.768;2023-03-12T09:47:48;7.13;;;5.00;;
2386;SDS011;49473;50.772;8.768;2023-03-12T09:50:19;9.43;;;5.90;;
2386;SDS011;49473;50.772;8.768;2023-03-12T09:52:52;5.93;;;5.37;;
2386;SDS011;49473;50.772;8.768;2023-03-12T09:55:23;7.40;;;6.07;;
2386;SDS011;49473;50.772;8.768;2023-03-12T09:57:51;9.33;;;5.37;;
2386;SDS011;49473;50.772;8.768;2023-03-12T10:00:20;6.10;;;5.60;;
2386;SDS011;49473;50.772;8.768;2023-03-12T10:02:53;10.87;;;6.00;;
2386;SDS011;49473;50.772;8.768;2023-03-12T10:05:35;6.87;;;5.60;;
2386;SDS011;49473;50.772;8.768;2023-03-12T10:08:07;6.20;;;5.60;;
2386;SDS011;49473;50.772;8.768;2023-03-12T10:10:47;7.07;;;6.43;;
2386;SDS011;49473;50.772;8.768;2023-03-12T10:13:22;5.57;;;5.03;;
2386;SDS011;49473;50.772;8.768;2023-03-12T10:16:04;6.83;;;5.93;;
2386;SDS011;49473;50.772;8.768;2023-03-12T10:18:43;7.53;;;5.80;;
2386;SDS011;49473;50.772;8.768;2023-03-12T10:21:23;7.60;;;5.87;;
2386;SDS011;49473;50.772;8.768;2023-03-12T10:24:01;6.03;;;5.43;;
2386;SDS011;49473;50.772;8.768;2023-03-12T10:26:34;6.93;;;6.33;;
2386;SDS011;49473;50.772;8.768;2023-03-12T10:29:07;7.70;;;6.57;;
2386;SDS011;49473;50.772;8.768;2023-03-12T10:31:40;7.83;;;7.07;;
2386;SDS011;49473;50.772;8.768;2023-03-12T10:34:14;7.87;;;7.10;;
2386;SDS011;49473;50.772;8.768;2023-03-12T10:36:47;12.37;;;8.50;;
2386;SDS011;49473;50.772;8.768;2023-03-12T10:39:15;10.00;;;8.17;;
2386;SDS011;49473;50.772;8.768;2023-03-12T10:41:44;8.07;;;7.37;;
2386;SDS011;49473;50.772;8.768;2023-03-12T10:44:13;9.67;;;8.60;;
2386;SDS011;49473;50.772;8.768;2023-03-12T10:49:41;9.40;;;7.70;;
2386;SDS011;49473;50.772;8.768;2023-03-12T10:52:15;9.17;;;8.27;;
2386;SDS011;49473;50.772;8.768;2023-03-12T10:54:43;9.10;;;8.30;;
2386;SDS011;49473;50.772;8.768;2023-03-12T10:57:12;8.37;;;7.70;;
2386;SDS011;49473;50.772;8.768;2023-03-12T10:59:40;13.13;;;8.70;;
2386;SDS011;49473;50.772;8.768;2023-03-12T11:02:27;8.30;;;7.60;;
2386;SDS011;49473;50.772;8.768;2023-03-12T11:05:00;9.07;;;8.23;;
2386;SDS011;49473;50.772;8.768;2023-03-12T11:07:29;8.80;;;8.10;;
2386;SDS011;49473;50.772;8.768;2023-03-12T11:12:52;8.07;;;7.47;;
2386;SDS011;49473;50.772;8.768;2023-03-12T11:15:22;8.60;;;7.53;;
2386;SDS011;49473;50.772;8.768;2023-03-12T11:17:52;9.40;;;8.50;;
2386;SDS011;49473;50.772;8.768;2023-03-12T11:20:46;9.43;;;8.57;;
2386;SDS011;49473;50.772;8.768;2023-03-12T11:23:19;10.70;;;8.93;;
2386;SDS011;49473;50.772;8.768;2023-03-12T11:25:55;9.57;;;8.77;;
2386;SDS011;49473;50.772;8.768;2023-03-12T11:28:24;9.87;;;8.77;;
2386;SDS011;49473;50.772;8.768;2023-03-12T11:30:59;9.10;;;8.40;;
2386;SDS011;49473;50.772;8.768;2023-03-12T11:33:27;9.87;;;8.90;;
2386;SDS011;49473;50.772;8.768;2023-03-12T11:36:00;9.03;;;8.33;;
2386;SDS011;49473;50.772;8.768;2023-03-12T11:38:36;10.47;;;9.57;;
2386;SDS011;49473;50.772;8.768;2023-03-12T11:41:16;10.47;;;9.60;;
2386;SDS011;49473;50.772;8.768;2023-03-12T11:43:55;10.80;;;9.80;;
2386;SDS011;49473;50.772;8.768;2023-03-12T11:46:34;9.63;;;8.80;;
2386;SDS011;49473;50.772;8.768;2023-03-12T11:49:13;9.13;;;8.30;;
2386;SDS011;49473;50.772;8.768;2023-03-12T11:51:52;8.97;;;8.27;;
2386;SDS011;49473;50.772;8.768;2023-03-12T11:57:34;9.80;;;8.90;;
2386;SDS011;49473;50.772;8.768;2023-03-12T12:00:09;9.73;;;8.87;;
2386;SDS011;49473;50.772;8.768;2023-03-12T12:06:02;9.87;;;8.87;;
2386;SDS011;49473;50.772;8.768;2023-03-12T12:08:53;10.00;;;9.20;;
2386;SDS011;49473;50.772;8.768;2023-03-12T12:11:34;9.63;;;8.53;;
2386;SDS011;49473;50.772;8.768;2023-03-12T12:14:14;9.70;;;8.83;;
2386;SDS011;49473;50.772;8.768;2023-03-12T12:16:52;10.17;;;9.27;;
2386;SDS011;49473;50.772;8.768;2023-03-12T12:19:30;10.70;;;9.67;;
2386;SDS011;49473;50.772;8.768;2023-03-12T12:22:17;10.47;;;9.57;;
2386;SDS011;49473;50.772;8.768;2023-03-12T12:28:20;9.87;;;8.97;;
2386;SDS011;49473;50.772;8.768;2023-03-12T12:31:06;10.37;;;9.47;;
2386;SDS011;49473;50.772;8.768;2023-03-12T12:33:44;10.93;;;9.90;;
2386;SDS011;49473;50.772;8.768;2023-03-12T12:36:20;11.67;;;10.57;;
2386;SDS011;49473;50.772;8.768;2023-03-12T12:38:50;11.47;;;10.37;;
2386;SDS011;49473;50.772;8.768;2023-03-12T12:41:22;11.13;;;10.23;;
2386;SDS011;49473;50.772;8.768;2023-03-12T12:43:51;11.57;;;10.43;;
2386;SDS011;49473;50.772;8.768;2023-03-12T12:46:25;11.70;;;10.60;;
2386;SDS011;49473;50.772;8.768;2023-03-12T12:48:56;11.57;;;10.37;;
2386;SDS011;49473;50.772;8.768;2023-03-12T12:51:27;10.60;;;9.70;;
2386;SDS011;49473;50.772;8.768;2023-03-12T12:53:58;12.40;;;11.30;;
2386;SDS011;49473;50.772;8.768;2023-03-12T12:56:31;13.43;;;12.17;;
2386;SDS011;49473;50.772;8.768;2023-03-12T12:59:11;13.00;;;11.70;;
2386;SDS011;49473;50.772;8.768;2023-03-12T13:01:48;12.30;;;11.20;;
2386;SDS011;49473;50.772;8.768;2023-03-12T13:04:19;12.73;;;11.43;;
2386;SDS011;49473;50.772;8.768;2023-03-12T13:06:58;12.87;;;11.67;;
2386;SDS011;49473;50.772;8.768;2023-03-12T13:09:34;14.03;;;12.73;;
2386;SDS011;49473;50.772;8.768;2023-03-12T13:12:07;13.13;;;11.70;;
2386;SDS011;49473;50.772;8.768;2023-03-12T13:14:39;12.67;;;11.47;;
2386;SDS011;49473;50.772;8.768;2023-03-12T13:17:19;15.20;;;12.83;;
2386;SDS011;49473;50.772;8.768;2023-03-12T13:19:47;12.40;;;11.27;;
2386;SDS011;49473;50.772;8.768;2023-03-12T13:22:19;13.43;;;12.13;;
2386;SDS011;49473;50.772;8.768;2023-03-12T13:24:56;12.20;;;11.10;;
2386;SDS011;49473;50.772;8.768;2023-03-12T13:27:35;12.17;;;11.07;;
2386;SDS011;49473;50.772;8.768;2023-03-12T13:33:13;14.40;;;13.20;;
2386;SDS011;49473;50.772;8.768;2023-03-12T13:35:41;12.37;;;11.17;;
2386;SDS011;49473;50.772;8.768;2023-03-12T13:38:16;12.40;;;11.30;;
2386;SDS011;49473;50.772;8.768;2023-03-12T13:40:59;13.47;;;12.17;;
2386;SDS011;49473;50.772;8.768;2023-03-12T13:49:11;11.60;;;10.53;;
2386;SDS011;49473;50.772;8.768;2023-03-12T13:51:42;12.30;;;11.17;;
2386;SDS011;49473;50.772;8.768;2023-03-12T13:54:19;11.57;;;10.50;;
2386;SDS011;49473;50.772;8.768;2023-03-12T13:56:55;11.47;;;10.40;;
2386;SDS011;49473;50.772;8.768;2023-03-12T13:59:25;13.07;;;11.97;;
2386;SDS011;49473;50.772;8.768;2023-03-12T14:01:55;11.80;;;10.80;;
2386;SDS011;49473;50.772;8.768;2023-03-12T14:04:29;11.17;;;10.00;;
2386;SDS011;49473;50.772;8.768;2023-03-12T14:07:04;12.33;;;11.07;;
2386;SDS011;49473;50.772;8.768;2023-03-12T14:09:56;12.20;;;11.10;;
2386;SDS011;49473;50.772;8.768;2023-03-12T14:12:32;12.13;;;10.93;;
2386;SDS011;49473;50.772;8.768;2023-03-12T14:15:09;11.97;;;10.80;;
2386;SDS011;49473;50.772;8.768;2023-03-12T14:17:44;12.27;;;11.07;;
2386;SDS011;49473;50.772;8.768;2023-03-12T14:20:13;12.73;;;11.47;;
2386;SDS011;49473;50.772;8.768;2023-03-12T14:22:44;11.77;;;10.77;;
2386;SDS011;49473;50.772;8.768;2023-03-12T14:25:16;11.53;;;10.53;;
2386;SDS011;49473;50.772;8.768;2023-03-12T14:27:52;11.73;;;10.53;;
2386;SDS011;49473;50.772;8.768;2023-03-12T14:30:20;12.67;;;11.47;;
2386;SDS011;49473;50.772;8.768;2023-03-12T14:32:51;12.90;;;11.70;;
2386;SDS011;49473;50.772;8.768;2023-03-12T14:35:24;14.50;;;12.80;;
2386;SDS011;49473;50.772;8.768;2023-03-12T14:37:55;15.33;;;13.83;;
2386;SDS011;49473;50.772;8.768;2023-03-12T14:40:28;15.57;;;14.17;;
2386;SDS011;49473;50.772;8.768;2023-03-12T14:43:17;14.33;;;12.93;;
2386;SDS011;49473;50.772;8.768;2023-03-12T14:45:45;14.83;;;13.43;;
2386;SDS011;49473;50.772;8.768;2023-03-12T14:48:14;14.93;;;13.40;;
2386;SDS011;49473;50.772;8.768;2023-03-12T14:50:47;17.10;;;15.50;;
2386;SDS011;49473;50.772;8.768;2023-03-12T14:53:17;16.07;;;14.50;;
2386;SDS011;49473;50.772;8.768;2023-03-12T14:55:47;16.60;;;15.00;;
2386;SDS011;49473;50.772;8.768;2023-03-12T14:58:24;15.33;;;13.80;;
2386;SDS011;49473;50.772;8.768;2023-03-12T15:00:53;17.23;;;14.43;;
2386;SDS011;49473;50.772;8.768;2023-03-12T15:03:21;15.10;;;13.70;;
2386;SDS011;49473;50.772;8.768;2023-03-12T15:05:50;15.50;;;14.10;;
2386;SDS011;49473;50.772;8.768;2023-03-12T15:08:18;17.67;;;15.23;;
2386;SDS011;49473;50.772;8.768;2023-03-12T15:10:46;16.47;;;14.27;;
2386;SDS011;49473;50.772;8.768;2023-03-12T15:13:14;16.87;;;15.20;;
2386;SDS011;49473;50.772;8.768;2023-03-12T15:15:43;16.90;;;15.40;;
2386;SDS011;49473;50.772;8.768;2023-03-12T15:18:12;27.23;;;21.30;;
2386;SDS011;49473;50.772;8.768;2023-03-12T15:20:43;17.73;;;15.93;;
2386;SDS011;49473;50.772;8.768;2023-03-12T15:23:11;19.10;;;16.70;;
2386;SDS011;49473;50.772;8.768;2023-03-12T15:25:40;15.97;;;14.27;;
2386;SDS011;49473;50.772;8.768;2023-03-12T15:28:24;17.93;;;16.10;;
2386;SDS011;49473;50.772;8.768;2023-03-12T15:31:04;16.30;;;14.70;;
2386;SDS011;49473;50.772;8.768;2023-03-12T15:33:33;16.07;;;14.57;;
2386;SDS011;49473;50.772;8.768;2023-03-12T15:36:01;17.73;;;15.83;;